sensor_id;sensor_type;location;lat;lon;timestamp;P1;durP1;ratioP1;P2;durP2;ratioP2
53044;SDS011;38930;52.766;6.884;2022-11-15T00:02:06;27.70;;;14.75;;
53044;SDS011;38930;52.766;6.884;2022-11-15T00:04:32;19.73;;;12.60;;
53044;SDS011;38930;52.766;6.884;2022-11-15T00:06:57;22.05;;;13.55;;
53044;SDS011;38930;52.766;6.884;2022-11-15T00:09:23;20.00;;;12.93;;
53044;SDS011;38930;52.766;6.884;2022-11-15T00:11:48;21.83;;;12.70;;
53044;SDS011;38930;52.766;6.884;2022-11-15T00:14:16;21.50;;;13.55;;
53044;SDS011;38930;52.766;6.884;2022-11-15T00:16:41;21.95;;;12.65;;
53044;SDS011;38930;52.766;6.884;2022-11-15T00:19:07;21.48;;;14.02;;
53044;SDS011;38930;52.766;6.884;2022-11-15T00:21:32;24.02;;;15.07;;
53044;SDS011;38930;52.766;6.884;2022-11-15T00:23:58;21.33;;;13.40;;
53044;SDS011;38930;52.766;6.884;2022-11-15T00:26:24;23.23;;;14.45;;
53044;SDS011;38930;52.766;6.884;2022-11-15T00:28:51;20.63;;;13.50;;
53044;SDS011;38930;52.766;6.884;2022-11-15T00:31:18;23.67;;;14.02;;
53044;SDS011;38930;52.766;6.884;2022-11-15T00:33:43;24.23;;;14.77;;
53044;SDS011;38930;52.766;6.884;2022-11-15T00:36:10;24.33;;;14.27;;
53044;SDS011;38930;52.766;6.884;2022-11-15T00:38:37;23.25;;;14.15;;
53044;SDS011;38930;52.766;6.884;2022-11-15T00:41:04;22.85;;;14.48;;
53044;SDS011;38930;52.766;6.884;2022-11-15T00:43:31;25.13;;;14.50;;
53044;SDS011;38930;52.766;6.884;2022-11-15T00:45:58;23.48;;;14.57;;
53044;SDS011;38930;52.766;6.884;2022-11-15T00:48:23;25.20;;;13.68;;
53044;SDS011;38930;52.766;6.884;2022-11-15T00:50:49;24.83;;;14.82;;
53044;SDS011;38930;52.766;6.884;2022-11-15T00:53:15;27.15;;;13.60;;
53044;SDS011;38930;52.766;6.884;2022-11-15T00:55:41;25.48;;;14.05;;
53044;SDS011;38930;52.766;6.884;2022-11-15T00:58:07;22.08;;;12.75;;
53044;SDS011;38930;52.766;6.884;2022-11-15T01:00:33;24.65;;;14.35;;
53044;SDS011;38930;52.766;6.884;2022-11-15T01:02:59;23.10;;;13.10;;
53044;SDS011;38930;52.766;6.884;2022-11-15T01:05:26;23.63;;;13.50;;
53044;SDS011;38930;52.766;6.884;2022-11-15T01:07:52;26.00;;;14.85;;
53044;SDS011;38930;52.766;6.884;2022-11-15T01:10:19;24.05;;;13.55;;
53044;SDS011;38930;52.766;6.884;2022-11-15T01:12:45;20.27;;;13.02;;
53044;SDS011;38930;52.766;6.884;2022-11-15T01:15:11;26.08;;;14.10;;
53044;SDS011;38930;52.766;6.884;2022-11-15T01:17:37;24.45;;;13.50;;
53044;SDS011;38930;52.766;6.884;2022-11-15T01:20:03;23.83;;;14.00;;
53044;SDS011;38930;52.766;6.884;2022-11-15T01:22:29;24.55;;;13.43;;
53044;SDS011;38930;52.766;6.884;2022-11-15T01:24:55;21.92;;;13.85;;
53044;SDS011;38930;52.766;6.884;2022-11-15T01:27:20;21.95;;;13.43;;
53044;SDS011;38930;52.766;6.884;2022-11-15T01:29:46;22.42;;;13.02;;
53044;SDS011;38930;52.766;6.884;2022-11-15T01:32:12;22.67;;;13.93;;
53044;SDS011;38930;52.766;6.884;2022-11-15T01:34:38;24.13;;;14.00;;
53044;SDS011;38930;52.766;6.884;2022-11-15T01:37:03;28.80;;;14.15;;
53044;SDS011;38930;52.766;6.884;2022-11-15T01:39:29;22.58;;;13.18;;
53044;SDS011;38930;52.766;6.884;2022-11-15T01:41:54;23.08;;;13.20;;
53044;SDS011;38930;52.766;6.884;2022-11-15T01:47:08;23.52;;;13.70;;
53044;SDS011;38930;52.766;6.884;2022-11-15T01:49:43;26.58;;;14.52;;
53044;SDS011;38930;52.766;6.884;2022-11-15T01:52:20;25.67;;;13.70;;
53044;SDS011;38930;52.766;6.884;2022-11-15T01:54:50;22.45;;;14.05;;
53044;SDS011;38930;52.766;6.884;2022-11-15T01:57:24;21.83;;;13.40;;
53044;SDS011;38930;52.766;6.884;2022-11-15T01:59:49;22.55;;;13.35;;
53044;SDS011;38930;52.766;6.884;2022-11-15T02:02:16;21.67;;;13.15;;
53044;SDS011;38930;52.766;6.884;2022-11-15T02:04:45;23.80;;;13.55;;
53044;SDS011;38930;52.766;6.884;2022-11-15T02:07:13;25.67;;;13.77;;
53044;SDS011;38930;52.766;6.884;2022-11-15T02:09:41;26.05;;;13.57;;
53044;SDS011;38930;52.766;6.884;2022-11-15T02:12:08;23.73;;;13.02;;
53044;SDS011;38930;52.766;6.884;2022-11-15T02:14:36;25.35;;;14.32;;
53044;SDS011;38930;52.766;6.884;2022-11-15T02:17:09;25.70;;;14.15;;
53044;SDS011;38930;52.766;6.884;2022-11-15T02:22:51;22.90;;;13.93;;
53044;SDS011;38930;52.766;6.884;2022-11-15T02:28:15;28.27;;;13.65;;
53044;SDS011;38930;52.766;6.884;2022-11-15T02:36:02;27.88;;;15.05;;
53044;SDS011;38930;52.766;6.884;2022-11-15T02:41:24;27.95;;;15.02;;
53044;SDS011;38930;52.766;6.884;2022-11-15T02:44:21;28.13;;;15.20;;
53044;SDS011;38930;52.766;6.884;2022-11-15T02:46:53;24.80;;;14.73;;
53044;SDS011;38930;52.766;6.884;2022-11-15T02:49:37;28.08;;;15.45;;
53044;SDS011;38930;52.766;6.884;2022-11-15T02:52:14;25.23;;;15.15;;
53044;SDS011;38930;52.766;6.884;2022-11-15T02:57:23;28.17;;;14.07;;
53044;SDS011;38930;52.766;6.884;2022-11-15T03:11:29;31.58;;;15.70;;
53044;SDS011;38930;52.766;6.884;2022-11-15T03:16:33;24.02;;;14.05;;
53044;SDS011;38930;52.766;6.884;2022-11-15T03:19:19;24.55;;;14.82;;
53044;SDS011;38930;52.766;6.884;2022-11-15T03:21:52;26.35;;;14.65;;
53044;SDS011;38930;52.766;6.884;2022-11-15T03:24:18;26.80;;;15.05;;
53044;SDS011;38930;52.766;6.884;2022-11-15T03:29:34;28.58;;;14.98;;
53044;SDS011;38930;52.766;6.884;2022-11-15T03:32:02;31.33;;;15.57;;
53044;SDS011;38930;52.766;6.884;2022-11-15T03:34:36;28.92;;;15.85;;
53044;SDS011;38930;52.766;6.884;2022-11-15T03:37:02;28.17;;;15.68;;
53044;SDS011;38930;52.766;6.884;2022-11-15T03:39:28;29.15;;;16.75;;
53044;SDS011;38930;52.766;6.884;2022-11-15T03:41:57;31.48;;;15.45;;
53044;SDS011;38930;52.766;6.884;2022-11-15T03:47:26;32.83;;;17.42;;
53044;SDS011;38930;52.766;6.884;2022-11-15T03:50:10;36.78;;;17.45;;
53044;SDS011;38930;52.766;6.884;2022-11-15T03:52:39;31.15;;;17.52;;
53044;SDS011;38930;52.766;6.884;2022-11-15T03:55:06;35.80;;;18.48;;
53044;SDS011;38930;52.766;6.884;2022-11-15T03:57:35;40.15;;;19.10;;
53044;SDS011;38930;52.766;6.884;2022-11-15T04:00:02;33.83;;;18.50;;
53044;SDS011;38930;52.766;6.884;2022-11-15T04:02:29;36.67;;;18.63;;
53044;SDS011;38930;52.766;6.884;2022-11-15T04:04:54;43.85;;;18.23;;
53044;SDS011;38930;52.766;6.884;2022-11-15T04:07:20;35.47;;;18.08;;
53044;SDS011;38930;52.766;6.884;2022-11-15T04:09:45;41.70;;;19.77;;
53044;SDS011;38930;52.766;6.884;2022-11-15T04:15:00;39.72;;;20.35;;
53044;SDS011;38930;52.766;6.884;2022-11-15T04:20:08;40.58;;;20.73;;
53044;SDS011;38930;52.766;6.884;2022-11-15T04:23:04;47.80;;;21.85;;
53044;SDS011;38930;52.766;6.884;2022-11-15T04:25:53;39.95;;;21.52;;
53044;SDS011;38930;52.766;6.884;2022-11-15T04:28:20;40.08;;;21.00;;
53044;SDS011;38930;52.766;6.884;2022-11-15T04:30:46;48.65;;;22.02;;
53044;SDS011;38930;52.766;6.884;2022-11-15T04:33:13;44.78;;;23.00;;
53044;SDS011;38930;52.766;6.884;2022-11-15T04:35:39;50.83;;;24.33;;
53044;SDS011;38930;52.766;6.884;2022-11-15T04:38:05;44.78;;;22.55;;
53044;SDS011;38930;52.766;6.884;2022-11-15T04:40:32;46.88;;;23.33;;
53044;SDS011;38930;52.766;6.884;2022-11-15T04:42:57;44.28;;;22.15;;
53044;SDS011;38930;52.766;6.884;2022-11-15T04:45:23;42.95;;;22.63;;
53044;SDS011;38930;52.766;6.884;2022-11-15T04:47:49;47.55;;;23.08;;
53044;SDS011;38930;52.766;6.884;2022-11-15T04:50:15;41.13;;;22.25;;
53044;SDS011;38930;52.766;6.884;2022-11-15T04:52:41;44.72;;;23.95;;
53044;SDS011;38930;52.766;6.884;2022-11-15T04:55:17;47.63;;;22.50;;
53044;SDS011;38930;52.766;6.884;2022-11-15T04:57:43;48.33;;;22.50;;
53044;SDS011;38930;52.766;6.884;2022-11-15T05:00:10;46.90;;;22.20;;
53044;SDS011;38930;52.766;6.884;2022-11-15T05:02:37;46.42;;;22.17;;
53044;SDS011;38930;52.766;6.884;2022-11-15T05:05:22;42.78;;;22.23;;
53044;SDS011;38930;52.766;6.884;2022-11-15T05:07:49;45.35;;;22.20;;
53044;SDS011;38930;52.766;6.884;2022-11-15T05:10:15;40.33;;;21.58;;
53044;SDS011;38930;52.766;6.884;2022-11-15T05:12:40;38.53;;;22.10;;
53044;SDS011;38930;52.766;6.884;2022-11-15T05:15:06;43.78;;;21.23;;
53044;SDS011;38930;52.766;6.884;2022-11-15T05:17:32;46.63;;;22.83;;
53044;SDS011;38930;52.766;6.884;2022-11-15T05:19:58;46.97;;;22.10;;
53044;SDS011;38930;52.766;6.884;2022-11-15T05:22:24;41.72;;;22.58;;
53044;SDS011;38930;52.766;6.884;2022-11-15T05:24:49;40.50;;;21.05;;
53044;SDS011;38930;52.766;6.884;2022-11-15T05:27:15;40.28;;;21.23;;
53044;SDS011;38930;52.766;6.884;2022-11-15T05:29:41;35.90;;;20.92;;
53044;SDS011;38930;52.766;6.884;2022-11-15T05:32:07;41.35;;;21.50;;
53044;SDS011;38930;52.766;6.884;2022-11-15T05:34:34;38.47;;;21.42;;
53044;SDS011;38930;52.766;6.884;2022-11-15T05:36:59;41.40;;;21.48;;
53044;SDS011;38930;52.766;6.884;2022-11-15T05:39:25;39.78;;;20.95;;
53044;SDS011;38930;52.766;6.884;2022-11-15T05:41:52;37.97;;;21.00;;
53044;SDS011;38930;52.766;6.884;2022-11-15T05:44:26;37.38;;;21.55;;
53044;SDS011;38930;52.766;6.884;2022-11-15T05:46:52;39.72;;;20.27;;
53044;SDS011;38930;52.766;6.884;2022-11-15T05:49:21;35.22;;;19.67;;
53044;SDS011;38930;52.766;6.884;2022-11-15T05:51:51;36.00;;;20.05;;
53044;SDS011;38930;52.766;6.884;2022-11-15T05:54:18;35.35;;;19.95;;
53044;SDS011;38930;52.766;6.884;2022-11-15T05:56:46;37.10;;;20.00;;
53044;SDS011;38930;52.766;6.884;2022-11-15T05:59:12;32.20;;;19.58;;
53044;SDS011;38930;52.766;6.884;2022-11-15T06:01:38;41.28;;;18.85;;
53044;SDS011;38930;52.766;6.884;2022-11-15T06:04:04;35.78;;;19.33;;
53044;SDS011;38930;52.766;6.884;2022-11-15T06:06:29;31.55;;;18.40;;
53044;SDS011;38930;52.766;6.884;2022-11-15T06:08:55;37.85;;;19.00;;
53044;SDS011;38930;52.766;6.884;2022-11-15T06:11:21;35.03;;;18.08;;
53044;SDS011;38930;52.766;6.884;2022-11-15T06:13:46;37.97;;;19.42;;
53044;SDS011;38930;52.766;6.884;2022-11-15T06:16:12;34.28;;;19.15;;
53044;SDS011;38930;52.766;6.884;2022-11-15T06:18:38;33.08;;;19.13;;
53044;SDS011;38930;52.766;6.884;2022-11-15T06:21:03;31.08;;;18.80;;
53044;SDS011;38930;52.766;6.884;2022-11-15T06:23:33;37.00;;;19.90;;
53044;SDS011;38930;52.766;6.884;2022-11-15T06:26:00;36.45;;;19.20;;
53044;SDS011;38930;52.766;6.884;2022-11-15T06:28:30;33.30;;;19.27;;
53044;SDS011;38930;52.766;6.884;2022-11-15T06:31:06;38.70;;;19.65;;
53044;SDS011;38930;52.766;6.884;2022-11-15T06:33:38;32.08;;;18.38;;
53044;SDS011;38930;52.766;6.884;2022-11-15T06:36:06;32.67;;;18.77;;
53044;SDS011;38930;52.766;6.884;2022-11-15T06:38:33;32.60;;;18.70;;
53044;SDS011;38930;52.766;6.884;2022-11-15T06:41:03;34.25;;;18.90;;
53044;SDS011;38930;52.766;6.884;2022-11-15T06:43:30;35.42;;;18.88;;
53044;SDS011;38930;52.766;6.884;2022-11-15T06:45:57;32.78;;;17.95;;
53044;SDS011;38930;52.766;6.884;2022-11-15T06:48:24;32.47;;;19.58;;
53044;SDS011;38930;52.766;6.884;2022-11-15T06:50:51;30.67;;;17.95;;
53044;SDS011;38930;52.766;6.884;2022-11-15T06:53:22;32.60;;;17.67;;
53044;SDS011;38930;52.766;6.884;2022-11-15T06:55:48;27.80;;;17.53;;
53044;SDS011;38930;52.766;6.884;2022-11-15T06:58:14;27.95;;;17.40;;
53044;SDS011;38930;52.766;6.884;2022-11-15T07:00:40;28.60;;;17.52;;
53044;SDS011;38930;52.766;6.884;2022-11-15T07:03:06;34.70;;;18.80;;
53044;SDS011;38930;52.766;6.884;2022-11-15T07:05:31;34.13;;;17.23;;
53044;SDS011;38930;52.766;6.884;2022-11-15T07:07:58;29.45;;;16.35;;
53044;SDS011;38930;52.766;6.884;2022-11-15T07:10:24;31.60;;;16.30;;
53044;SDS011;38930;52.766;6.884;2022-11-15T07:12:51;32.25;;;18.02;;
53044;SDS011;38930;52.766;6.884;2022-11-15T07:15:17;29.77;;;17.00;;
53044;SDS011;38930;52.766;6.884;2022-11-15T07:17:43;28.38;;;16.83;;
53044;SDS011;38930;52.766;6.884;2022-11-15T07:20:09;29.88;;;16.83;;
53044;SDS011;38930;52.766;6.884;2022-11-15T07:22:35;31.48;;;16.45;;
53044;SDS011;38930;52.766;6.884;2022-11-15T07:25:01;25.88;;;15.98;;
53044;SDS011;38930;52.766;6.884;2022-11-15T07:27:26;27.25;;;16.27;;
53044;SDS011;38930;52.766;6.884;2022-11-15T07:29:52;25.98;;;16.45;;
53044;SDS011;38930;52.766;6.884;2022-11-15T07:32:17;24.75;;;16.23;;
53044;SDS011;38930;52.766;6.884;2022-11-15T07:34:43;23.48;;;15.35;;
53044;SDS011;38930;52.766;6.884;2022-11-15T07:37:10;25.33;;;15.15;;
53044;SDS011;38930;52.766;6.884;2022-11-15T07:39:36;24.38;;;16.08;;
53044;SDS011;38930;52.766;6.884;2022-11-15T07:42:02;25.30;;;16.10;;
53044;SDS011;38930;52.766;6.884;2022-11-15T07:44:46;26.85;;;16.45;;
53044;SDS011;38930;52.766;6.884;2022-11-15T07:47:11;30.23;;;16.67;;
53044;SDS011;38930;52.766;6.884;2022-11-15T07:49:37;25.27;;;16.45;;
53044;SDS011;38930;52.766;6.884;2022-11-15T07:52:03;23.27;;;15.15;;
53044;SDS011;38930;52.766;6.884;2022-11-15T07:54:28;25.60;;;15.82;;
53044;SDS011;38930;52.766;6.884;2022-11-15T07:56:54;25.27;;;16.02;;
53044;SDS011;38930;52.766;6.884;2022-11-15T07:59:20;23.80;;;16.13;;
53044;SDS011;38930;52.766;6.884;2022-11-15T08:01:45;27.55;;;15.43;;
53044;SDS011;38930;52.766;6.884;2022-11-15T08:04:11;25.48;;;16.92;;
53044;SDS011;38930;52.766;6.884;2022-11-15T08:06:37;23.65;;;16.75;;
53044;SDS011;38930;52.766;6.884;2022-11-15T08:09:03;28.98;;;15.68;;
53044;SDS011;38930;52.766;6.884;2022-11-15T08:11:28;25.50;;;16.30;;
53044;SDS011;38930;52.766;6.884;2022-11-15T08:13:54;25.48;;;17.17;;
53044;SDS011;38930;52.766;6.884;2022-11-15T08:16:20;25.20;;;16.92;;
53044;SDS011;38930;52.766;6.884;2022-11-15T08:18:46;28.23;;;17.48;;
53044;SDS011;38930;52.766;6.884;2022-11-15T08:21:13;24.93;;;16.40;;
53044;SDS011;38930;52.766;6.884;2022-11-15T08:23:42;25.30;;;17.25;;
53044;SDS011;38930;52.766;6.884;2022-11-15T08:26:08;31.83;;;17.17;;
53044;SDS011;38930;52.766;6.884;2022-11-15T08:28:34;25.33;;;16.88;;
53044;SDS011;38930;52.766;6.884;2022-11-15T08:30:59;28.23;;;18.08;;
53044;SDS011;38930;52.766;6.884;2022-11-15T08:33:25;30.10;;;18.27;;
53044;SDS011;38930;52.766;6.884;2022-11-15T08:35:51;29.20;;;17.98;;
53044;SDS011;38930;52.766;6.884;2022-11-15T08:38:16;27.15;;;18.70;;
53044;SDS011;38930;52.766;6.884;2022-11-15T08:40:42;30.20;;;19.67;;
53044;SDS011;38930;52.766;6.884;2022-11-15T08:43:07;30.92;;;18.42;;
53044;SDS011;38930;52.766;6.884;2022-11-15T08:45:34;30.95;;;18.92;;
53044;SDS011;38930;52.766;6.884;2022-11-15T08:48:00;27.92;;;19.58;;
53044;SDS011;38930;52.766;6.884;2022-11-15T08:50:27;30.35;;;18.63;;
53044;SDS011;38930;52.766;6.884;2022-11-15T08:52:53;29.55;;;18.05;;
53044;SDS011;38930;52.766;6.884;2022-11-15T08:55:18;27.88;;;19.08;;
53044;SDS011;38930;52.766;6.884;2022-11-15T08:57:44;29.15;;;18.50;;
53044;SDS011;38930;52.766;6.884;2022-11-15T09:00:10;29.35;;;19.75;;
53044;SDS011;38930;52.766;6.884;2022-11-15T09:05:03;31.83;;;20.02;;
53044;SDS011;38930;52.766;6.884;2022-11-15T09:07:28;29.13;;;19.48;;
53044;SDS011;38930;52.766;6.884;2022-11-15T09:09:55;32.22;;;20.80;;
53044;SDS011;38930;52.766;6.884;2022-11-15T09:12:21;28.65;;;19.67;;
53044;SDS011;38930;52.766;6.884;2022-11-15T09:14:46;27.75;;;18.73;;
53044;SDS011;38930;52.766;6.884;2022-11-15T09:17:12;31.55;;;19.83;;
53044;SDS011;38930;52.766;6.884;2022-11-15T09:19:37;30.88;;;19.75;;
53044;SDS011;38930;52.766;6.884;2022-11-15T09:22:05;32.08;;;20.08;;
53044;SDS011;38930;52.766;6.884;2022-11-15T09:24:31;32.90;;;19.08;;
53044;SDS011;38930;52.766;6.884;2022-11-15T09:26:57;27.67;;;19.75;;
53044;SDS011;38930;52.766;6.884;2022-11-15T09:29:22;31.27;;;20.33;;
53044;SDS011;38930;52.766;6.884;2022-11-15T09:31:48;30.48;;;19.80;;
53044;SDS011;38930;52.766;6.884;2022-11-15T09:34:14;27.88;;;19.45;;
53044;SDS011;38930;52.766;6.884;2022-11-15T09:36:39;26.23;;;18.35;;
53044;SDS011;38930;52.766;6.884;2022-11-15T09:39:05;27.80;;;17.90;;
53044;SDS011;38930;52.766;6.884;2022-11-15T09:49:59;24.88;;;17.10;;
53044;SDS011;38930;52.766;6.884;2022-11-15T09:52:27;27.13;;;18.60;;
53044;SDS011;38930;52.766;6.884;2022-11-15T09:54:53;23.63;;;16.65;;
53044;SDS011;38930;52.766;6.884;2022-11-15T10:05:37;25.33;;;17.98;;
53044;SDS011;38930;52.766;6.884;2022-11-15T10:08:25;23.15;;;16.92;;
53044;SDS011;38930;52.766;6.884;2022-11-15T10:11:10;24.98;;;15.93;;
53044;SDS011;38930;52.766;6.884;2022-11-15T10:13:40;23.52;;;16.10;;
53044;SDS011;38930;52.766;6.884;2022-11-15T10:24:28;18.38;;;14.27;;
53044;SDS011;38930;52.766;6.884;2022-11-15T10:26:59;22.33;;;14.52;;
53044;SDS011;38930;52.766;6.884;2022-11-15T10:29:25;24.20;;;15.82;;
53044;SDS011;38930;52.766;6.884;2022-11-15T10:31:51;21.58;;;14.20;;
53044;SDS011;38930;52.766;6.884;2022-11-15T10:34:17;20.17;;;14.57;;
53044;SDS011;38930;52.766;6.884;2022-11-15T10:36:46;23.48;;;14.98;;
53044;SDS011;38930;52.766;6.884;2022-11-15T10:39:19;22.67;;;14.70;;
53044;SDS011;38930;52.766;6.884;2022-11-15T10:41:44;18.50;;;14.55;;
53044;SDS011;38930;52.766;6.884;2022-11-15T10:46:42;23.00;;;14.35;;
53044;SDS011;38930;52.766;6.884;2022-11-15T10:49:14;18.27;;;13.07;;
53044;SDS011;38930;52.766;6.884;2022-11-15T10:54:25;18.08;;;12.50;;
53044;SDS011;38930;52.766;6.884;2022-11-15T10:56:59;16.35;;;11.80;;
53044;SDS011;38930;52.766;6.884;2022-11-15T10:59:31;15.48;;;10.70;;
53044;SDS011;38930;52.766;6.884;2022-11-15T11:01:58;12.90;;;10.73;;
53044;SDS011;38930;52.766;6.884;2022-11-15T11:04:25;12.02;;;9.73;;
53044;SDS011;38930;52.766;6.884;2022-11-15T11:06:52;11.10;;;9.40;;
53044;SDS011;38930;52.766;6.884;2022-11-15T11:09:38;10.60;;;8.13;;
53044;SDS011;38930;52.766;6.884;2022-11-15T11:12:10;10.30;;;7.95;;
53044;SDS011;38930;52.766;6.884;2022-11-15T11:14:37;9.45;;;6.80;;
53044;SDS011;38930;52.766;6.884;2022-11-15T11:26:01;7.43;;;5.28;;
53044;SDS011;38930;52.766;6.884;2022-11-15T11:34:21;6.35;;;4.30;;
53044;SDS011;38930;52.766;6.884;2022-11-15T11:48:32;7.32;;;4.40;;
53044;SDS011;38930;52.766;6.884;2022-11-15T11:51:18;9.13;;;4.53;;
53044;SDS011;38930;52.766;6.884;2022-11-15T11:53:52;8.13;;;4.03;;
53044;SDS011;38930;52.766;6.884;2022-11-15T11:58:51;7.03;;;4.30;;
53044;SDS011;38930;52.766;6.884;2022-11-15T12:01:26;8.35;;;4.07;;
53044;SDS011;38930;52.766;6.884;2022-11-15T12:03:59;6.15;;;4.10;;
53044;SDS011;38930;52.766;6.884;2022-11-15T12:09:26;5.22;;;3.78;;
53044;SDS011;38930;52.766;6.884;2022-11-15T12:12:11;5.20;;;3.60;;
53044;SDS011;38930;52.766;6.884;2022-11-15T12:15:18;7.43;;;3.70;;
53044;SDS011;38930;52.766;6.884;2022-11-15T12:17:39;5.00;;;3.42;;
53044;SDS011;38930;52.766;6.884;2022-11-15T12:20:25;4.75;;;3.50;;
53044;SDS011;38930;52.766;6.884;2022-11-15T12:22:54;5.10;;;3.30;;
53044;SDS011;38930;52.766;6.884;2022-11-15T12:25:35;4.15;;;3.30;;
53044;SDS011;38930;52.766;6.884;2022-11-15T12:28:17;6.88;;;3.78;;
53044;SDS011;38930;52.766;6.884;2022-11-15T12:30:56;4.78;;;3.30;;
53044;SDS011;38930;52.766;6.884;2022-11-15T12:33:44;6.10;;;3.40;;
53044;SDS011;38930;52.766;6.884;2022-11-15T12:36:29;4.80;;;3.33;;
53044;SDS011;38930;52.766;6.884;2022-11-15T12:39:04;6.00;;;3.10;;
53044;SDS011;38930;52.766;6.884;2022-11-15T12:41:37;7.15;;;3.60;;
53044;SDS011;38930;52.766;6.884;2022-11-15T12:52:03;5.10;;;3.40;;
53044;SDS011;38930;52.766;6.884;2022-11-15T13:02:23;4.65;;;3.00;;
53044;SDS011;38930;52.766;6.884;2022-11-15T13:04:51;5.43;;;2.65;;
53044;SDS011;38930;52.766;6.884;2022-11-15T13:10:00;4.50;;;2.47;;
53044;SDS011;38930;52.766;6.884;2022-11-15T13:17:45;6.53;;;2.30;;
53044;SDS011;38930;52.766;6.884;2022-11-15T13:22:40;4.00;;;2.47;;
53044;SDS011;38930;52.766;6.884;2022-11-15T13:27:48;4.60;;;2.42;;
53044;SDS011;38930;52.766;6.884;2022-11-15T13:32:44;4.28;;;2.40;;
53044;SDS011;38930;52.766;6.884;2022-11-15T13:35:17;2.28;;;2.08;;
53044;SDS011;38930;52.766;6.884;2022-11-15T13:37:50;3.83;;;2.42;;
53044;SDS011;38930;52.766;6.884;2022-11-15T13:40:25;3.22;;;2.38;;
53044;SDS011;38930;52.766;6.884;2022-11-15T13:42:59;3.53;;;2.70;;
53044;SDS011;38930;52.766;6.884;2022-11-15T13:45:38;4.38;;;2.95;;
53044;SDS011;38930;52.766;6.884;2022-11-15T13:48:04;5.35;;;2.85;;
53044;SDS011;38930;52.766;6.884;2022-11-15T13:50:33;7.30;;;2.90;;
53044;SDS011;38930;52.766;6.884;2022-11-15T13:53:02;4.72;;;3.33;;
53044;SDS011;38930;52.766;6.884;2022-11-15T13:55:29;6.28;;;3.13;;
53044;SDS011;38930;52.766;6.884;2022-11-15T13:58:04;4.80;;;2.80;;
53044;SDS011;38930;52.766;6.884;2022-11-15T14:00:38;4.50;;;3.25;;
53044;SDS011;38930;52.766;6.884;2022-11-15T14:03:19;6.55;;;3.50;;
53044;SDS011;38930;52.766;6.884;2022-11-15T14:06:31;4.28;;;3.55;;
53044;SDS011;38930;52.766;6.884;2022-11-15T14:08:42;4.13;;;3.00;;
53044;SDS011;38930;52.766;6.884;2022-11-15T14:11:24;4.38;;;3.28;;
53044;SDS011;38930;52.766;6.884;2022-11-15T14:18:58;5.28;;;3.70;;
53044;SDS011;38930;52.766;6.884;2022-11-15T14:21:24;4.50;;;3.63;;
53044;SDS011;38930;52.766;6.884;2022-11-15T14:23:49;4.50;;;3.22;;
53044;SDS011;38930;52.766;6.884;2022-11-15T14:29:26;4.93;;;3.53;;
53044;SDS011;38930;52.766;6.884;2022-11-15T14:31:53;5.15;;;3.50;;
53044;SDS011;38930;52.766;6.884;2022-11-15T14:39:24;4.93;;;3.85;;
53044;SDS011;38930;52.766;6.884;2022-11-15T14:41:50;9.52;;;4.03;;
53044;SDS011;38930;52.766;6.884;2022-11-15T14:44:15;5.35;;;3.72;;
53044;SDS011;38930;52.766;6.884;2022-11-15T14:46:43;6.07;;;4.03;;
53044;SDS011;38930;52.766;6.884;2022-11-15T14:49:09;4.65;;;3.97;;
53044;SDS011;38930;52.766;6.884;2022-11-15T14:51:35;5.03;;;3.88;;
53044;SDS011;38930;52.766;6.884;2022-11-15T14:54:00;6.57;;;3.65;;
53044;SDS011;38930;52.766;6.884;2022-11-15T14:56:26;4.05;;;3.53;;
53044;SDS011;38930;52.766;6.884;2022-11-15T14:58:52;4.90;;;3.70;;
53044;SDS011;38930;52.766;6.884;2022-11-15T15:01:23;5.38;;;4.00;;
53044;SDS011;38930;52.766;6.884;2022-11-15T15:03:51;5.55;;;3.45;;
53044;SDS011;38930;52.766;6.884;2022-11-15T15:06:19;4.65;;;3.40;;
53044;SDS011;38930;52.766;6.884;2022-11-15T15:08:45;5.28;;;3.70;;
53044;SDS011;38930;52.766;6.884;2022-11-15T15:11:15;6.32;;;3.30;;
53044;SDS011;38930;52.766;6.884;2022-11-15T15:13:59;3.65;;;3.10;;
53044;SDS011;38930;52.766;6.884;2022-11-15T15:16:26;5.82;;;3.53;;
53044;SDS011;38930;52.766;6.884;2022-11-15T15:18:52;7.23;;;4.33;;
53044;SDS011;38930;52.766;6.884;2022-11-15T15:21:20;6.22;;;3.40;;
53044;SDS011;38930;52.766;6.884;2022-11-15T15:23:47;5.80;;;4.13;;
53044;SDS011;38930;52.766;6.884;2022-11-15T15:26:13;6.70;;;4.60;;
53044;SDS011;38930;52.766;6.884;2022-11-15T15:28:39;8.57;;;4.07;;
53044;SDS011;38930;52.766;6.884;2022-11-15T15:31:04;6.05;;;3.88;;
53044;SDS011;38930;52.766;6.884;2022-11-15T15:33:30;3.95;;;3.20;;
53044;SDS011;38930;52.766;6.884;2022-11-15T15:35:56;7.80;;;3.40;;
53044;SDS011;38930;52.766;6.884;2022-11-15T15:38:22;4.38;;;3.38;;
53044;SDS011;38930;52.766;6.884;2022-11-15T15:40:48;4.03;;;3.63;;
53044;SDS011;38930;52.766;6.884;2022-11-15T15:43:13;5.70;;;3.25;;
53044;SDS011;38930;52.766;6.884;2022-11-15T15:45:39;5.30;;;3.78;;
53044;SDS011;38930;52.766;6.884;2022-11-15T15:50:38;5.55;;;3.10;;
53044;SDS011;38930;52.766;6.884;2022-11-15T15:53:04;4.68;;;2.38;;
53044;SDS011;38930;52.766;6.884;2022-11-15T15:55:29;6.45;;;2.88;;
53044;SDS011;38930;52.766;6.884;2022-11-15T15:57:56;3.67;;;2.65;;
53044;SDS011;38930;52.766;6.884;2022-11-15T16:00:22;3.83;;;2.55;;
53044;SDS011;38930;52.766;6.884;2022-11-15T16:02:50;5.88;;;2.80;;
53044;SDS011;38930;52.766;6.884;2022-11-15T16:05:16;5.65;;;2.70;;
53044;SDS011;38930;52.766;6.884;2022-11-15T16:07:42;7.22;;;2.50;;
53044;SDS011;38930;52.766;6.884;2022-11-15T16:12:42;4.82;;;2.53;;
53044;SDS011;38930;52.766;6.884;2022-11-15T16:15:08;5.40;;;2.50;;
53044;SDS011;38930;52.766;6.884;2022-11-15T16:17:35;4.00;;;2.60;;
53044;SDS011;38930;52.766;6.884;2022-11-15T16:20:04;4.70;;;2.53;;
53044;SDS011;38930;52.766;6.884;2022-11-15T16:22:31;4.53;;;2.28;;
53044;SDS011;38930;52.766;6.884;2022-11-15T16:24:56;3.42;;;2.15;;
53044;SDS011;38930;52.766;6.884;2022-11-15T16:27:22;2.63;;;1.90;;
53044;SDS011;38930;52.766;6.884;2022-11-15T16:29:48;3.38;;;2.47;;
53044;SDS011;38930;52.766;6.884;2022-11-15T16:32:14;5.93;;;2.13;;
53044;SDS011;38930;52.766;6.884;2022-11-15T16:34:40;4.53;;;2.40;;
53044;SDS011;38930;52.766;6.884;2022-11-15T16:37:08;4.72;;;2.13;;
53044;SDS011;38930;52.766;6.884;2022-11-15T16:39:46;4.22;;;2.28;;
53044;SDS011;38930;52.766;6.884;2022-11-15T16:42:12;5.60;;;2.17;;
53044;SDS011;38930;52.766;6.884;2022-11-15T16:44:37;3.03;;;2.25;;
53044;SDS011;38930;52.766;6.884;2022-11-15T16:47:03;3.17;;;2.03;;
53044;SDS011;38930;52.766;6.884;2022-11-15T16:49:29;2.72;;;2.10;;
53044;SDS011;38930;52.766;6.884;2022-11-15T16:51:54;4.60;;;2.40;;
53044;SDS011;38930;52.766;6.884;2022-11-15T16:54:20;3.17;;;2.13;;
53044;SDS011;38930;52.766;6.884;2022-11-15T16:56:45;5.22;;;2.53;;
53044;SDS011;38930;52.766;6.884;2022-11-15T16:59:28;4.10;;;2.35;;
53044;SDS011;38930;52.766;6.884;2022-11-15T17:01:56;5.03;;;2.63;;
53044;SDS011;38930;52.766;6.884;2022-11-15T17:04:22;5.47;;;3.13;;
53044;SDS011;38930;52.766;6.884;2022-11-15T17:06:48;5.35;;;2.60;;
53044;SDS011;38930;52.766;6.884;2022-11-15T17:09:14;4.57;;;2.80;;
53044;SDS011;38930;52.766;6.884;2022-11-15T17:11:45;7.05;;;2.67;;
53044;SDS011;38930;52.766;6.884;2022-11-15T17:14:11;3.75;;;2.30;;
53044;SDS011;38930;52.766;6.884;2022-11-15T17:16:37;2.75;;;2.33;;
53044;SDS011;38930;52.766;6.884;2022-11-15T17:19:10;4.40;;;2.70;;